TimeEST,TemperatureF,Dew PointF,Humidity,Sea Level PressureIn,VisibilityMPH,Wind Direction,Wind SpeedMPH,Gust SpeedMPH,PrecipitationIn,Events,Conditions,WindDirDegrees,DateUTC
12:19 AM,55.4,51.8,88,29.39,7.0,South,12.7,-,0.00,,Overcast,190,2013-01-30 05:19:00
12:53 AM,55.0,52.0,89,29.35,4.0,South,9.2,-,0.01,Rain,Light Rain,190,2013-01-30 05:53:00
1:09 AM,53.6,51.8,94,29.34,5.0,SSW,8.1,-,0.00,,Overcast,200,2013-01-30 06:09:00
1:43 AM,53.6,51.8,94,29.32,4.0,SSW,9.2,-,0.01,Rain,Light Rain,200,2013-01-30 06:43:00
1:53 AM,55.0,53.1,93,29.32,4.0,SSW,9.2,-,0.01,Rain,Light Rain,200,2013-01-30 06:53:00
2:03 AM,55.4,51.8,88,29.32,2.5,SW,9.2,-,0.03,Rain,Rain,220,2013-01-30 07:03:00
2:23 AM,53.6,51.8,94,29.31,4.0,WSW,8.1,-,0.06,Rain,Light Rain,250,2013-01-30 07:23:00
2:30 AM,53.6,51.8,94,29.31,2.5,WSW,8.1,-,N/A,Rain,Rain,250,2013-01-30 07:30:00
2:53 AM,52.0,50.0,93,29.30,5.0,NW,11.5,-,0.11,Rain,Light Rain,310,2013-01-30 07:53:00
3:02 AM,51.8,50.0,94,29.30,7.0,NNW,15.0,-,0.01,Rain,Light Rain,330,2013-01-30 08:02:00
3:53 AM,48.9,46.9,93,29.31,10.0,North,6.9,-,0.06,Rain,Light Rain,360,2013-01-30 08:53:00
4:33 AM,48.2,46.4,93,29.27,1.8,North,4.6,-,0.05,Rain,Light Rain,360,2013-01-30 09:33:00
4:53 AM,48.0,46.0,93,29.29,1.2,West,4.6,-,0.07,Rain,Light Rain,280,2013-01-30 09:53:00
5:05 AM,46.4,46.4,100,29.29,2.0,WNW,4.6,-,0.01,Rain,Light Rain,290,2013-01-30 10:05:00
5:14 AM,48.2,46.4,93,29.30,1.8,West,4.6,-,0.01,Rain,Light Rain,260,2013-01-30 10:14:00
5:22 AM,46.4,46.4,100,29.31,1.8,West,5.8,-,0.01,Rain,Light Rain,260,2013-01-30 10:22:00
5:31 AM,46.4,44.6,93,29.32,0.8,West,6.9,-,0.02,Rain,Light Rain,260,2013-01-30 10:31:00
5:40 AM,48.2,46.4,93,29.32,1.0,West,8.1,-,0.04,Rain,Rain,270,2013-01-30 10:40:00
5:53 AM,48.0,46.9,96,29.34,1.5,WNW,9.2,-,0.06,Rain,Light Rain,290,2013-01-30 10:53:00
5:57 AM,48.2,46.4,93,29.34,3.0,NW,12.7,-,0.00,Rain,Light Rain,310,2013-01-30 10:57:00
6:11 AM,44.6,42.8,93,29.34,9.0,NW,16.1,-,0.02,Rain,Light Rain,320,2013-01-30 11:11:00
6:42 AM,42.8,39.2,87,29.30,10.0,NNE,5.8,-,0.04,Rain,Light Rain,20,2013-01-30 11:42:00
6:53 AM,41.0,39.0,93,29.27,10.0,NE,6.9,-,0.04,Rain,Light Rain,50,2013-01-30 11:53:00
7:28 AM,41.0,39.2,93,29.30,10.0,NW,6.9,-,0.00,,Overcast,310,2013-01-30 12:28:00
7:53 AM,41.0,39.0,93,29.28,2.0,North,4.6,-,0.00,,Overcast,350,2013-01-30 12:53:00
8:07 AM,39.2,37.4,93,29.27,1.0,NNE,4.6,-,N/A,,Overcast,20,2013-01-30 13:07:00
8:53 AM,39.0,37.0,93,29.32,1.0,North,11.5,-,N/A,,Overcast,350,2013-01-30 13:53:00
9:53 AM,37.0,35.1,93,29.36,1.5,NNW,8.1,-,0.00,,Overcast,340,2013-01-30 14:53:00
10:12 AM,37.4,35.6,93,29.30,1.5,North,9.2,-,N/A,,Overcast,360,2013-01-30 15:12:00
10:43 AM,37.4,35.6,93,29.32,1.5,NNE,6.9,-,N/A,,Overcast,20,2013-01-30 15:43:00
10:53 AM,37.9,35.1,89,29.31,2.5,NNE,6.9,-,N/A,,Overcast,30,2013-01-30 15:53:00
11:00 AM,37.4,35.6,93,29.32,2.5,NNE,5.8,-,N/A,,Overcast,20,2013-01-30 16:00:00
11:53 AM,37.0,35.1,93,29.29,1.5,ENE,4.6,-,N/A,,Overcast,70,2013-01-30 16:53:00
12:22 PM,37.4,35.6,93,29.25,1.5,East,8.1,-,N/A,,Overcast,90,2013-01-30 17:22:00
12:53 PM,37.9,36.0,93,29.24,1.0,ENE,6.9,-,N/A,,Overcast,70,2013-01-30 17:53:00
1:19 PM,37.4,35.6,93,29.21,2.0,East,9.2,-,N/A,,Overcast,90,2013-01-30 18:19:00
1:53 PM,37.9,36.0,93,29.19,2.0,East,6.9,-,N/A,,Overcast,90,2013-01-30 18:53:00
2:39 PM,39.2,37.4,93,29.18,1.2,ESE,9.2,-,N/A,,Overcast,120,2013-01-30 19:39:00
2:53 PM,39.0,37.0,93,29.18,1.0,ESE,8.1,-,N/A,,Overcast,120,2013-01-30 19:53:00
3:09 PM,39.2,37.4,93,29.14,0.5,East,6.9,-,0.00,,Overcast,100,2013-01-30 20:09:00
3:53 PM,39.9,37.9,93,29.13,0.2,SE,4.6,-,0.00,Fog-Rain,Light Rain,130,2013-01-30 20:53:00
4:38 PM,39.2,37.4,93,29.12,0.8,Calm,Calm,-,0.02,,Overcast,0,2013-01-30 21:38:00
4:53 PM,39.9,37.9,93,29.12,0.8,Variable,4.6,-,0.03,Rain,Light Rain,0,2013-01-30 21:53:00
5:02 PM,42.8,39.2,87,29.09,2.0,SSW,10.4,16.1,0.00,Rain,Light Rain,200,2013-01-30 22:02:00
5:11 PM,44.6,42.8,93,29.09,8.0,SSW,11.5,-,0.00,Rain,Light Rain,210,2013-01-30 22:11:00
5:53 PM,44.1,41.0,89,29.10,10.0,SW,9.2,-,0.00,Rain,Light Rain,230,2013-01-30 22:53:00
6:18 PM,44.6,39.2,81,29.10,6.0,WSW,19.6,28.8,0.05,Rain,Rain,250,2013-01-30 23:18:00
6:53 PM,44.1,39.0,82,29.08,9.0,SW,13.8,-,0.09,Rain,Light Rain,220,2013-01-30 23:53:00
7:26 PM,44.6,39.2,81,29.07,10.0,SW,17.3,-,0.00,Rain,Light Rain,230,2013-01-31 00:26:00
7:41 PM,42.8,39.2,87,29.09,10.0,WSW,15.0,21.9,0.00,Rain,Light Rain,250,2013-01-31 00:41:00
7:53 PM,42.1,37.9,85,29.10,10.0,West,24.2,35.7,0.00,Rain,Light Rain,260,2013-01-31 00:53:00
8:08 PM,41.0,35.6,81,29.08,10.0,West,21.9,28.8,0.00,Rain,Light Rain,260,2013-01-31 01:08:00
8:46 PM,37.4,33.8,87,29.09,10.0,West,16.1,-,0.00,,Overcast,270,2013-01-31 01:46:00
8:53 PM,37.9,34.0,86,29.13,10.0,West,16.1,-,0.00,,Overcast,260,2013-01-31 01:53:00
8:57 PM,37.4,33.8,87,29.11,10.0,West,16.1,24.2,N/A,,Overcast,270,2013-01-31 01:57:00
9:53 PM,35.1,30.0,82,29.13,10.0,West,18.4,-,N/A,,Overcast,270,2013-01-31 02:53:00
10:21 PM,33.8,28.4,81,29.13,10.0,West,17.3,26.5,N/A,,Overcast,260,2013-01-31 03:21:00
10:53 PM,33.1,27.0,78,29.17,10.0,West,19.6,27.6,N/A,,Overcast,270,2013-01-31 03:53:00
11:53 PM,30.9,24.1,76,29.22,10.0,West,15.0,29.9,N/A,,Overcast,270,2013-01-31 04:53:00